Logo AVAMET
Benvolgut visitant, si us plau, ingressa Recuperar contrasenya
AVAMET paisatges

Palma de Gandia Marxuquera

Dades diàries. Acumulats / Últims 30 dies disponibles

Data Temperatura (°C) Humitat rel. (%) Pressió rel. (hPa) Vent (km/h) Precipitació
Mínima Mitjana Màxima Amplitud
tèrmica
Mínima Mitjana Màxima Mínima Mitjana Màxima Predom. Mitjana Ràfega
màxima
Total
(mm)
Índex-n
Mínima Mitjana Màxima Mínima Mitjana Màxima n
0 a 1
P0 max
mm 5'
Dades mensuals acumulades fins l'últim dia disponible
05/2020 10,2 14,6 19,1 20,9 20,3 28,0 34,2 24,0 24 72 98 1.011 1.025 1.037   1,4 33,8 82,4
Dades anuals acumulades fins l'últim dia disponible
2020 -1,4 9,2 19,1 14,8 11,2 21,5 34,2 35,6 19 77 99 1.009 1.029 1.044   1,6 56,3 666,0
Últims 30 dies disponibles
26-05-2020 14,4     20,1     28,1 13,7 54 80 97 1.033 1.034 1.036 E 0,5 14,5 0,4
25-05-2020 14,2     19,8     25,4 11,2 56 81 98 1.033 1.035 1.036 ENE 0,3 9,7 0,0
24-05-2020 16,9     21,0     26,4 9,5 65 82 95 1.035 1.036 1.037 ENE 1,1 17,7 0,0
23-05-2020 15,7     24,2     32,4 16,7 38 69 97 1.030 1.033 1.035 ENE 0,5 11,3 0,0
22-05-2020 16,1     24,7     32,4 16,3 43 70 97 1.029 1.030 1.033 ENE 0,5 12,9 0,0
21-05-2020 15,5     24,1     33,6 18,1 43 71 98 1.026 1.027 1.029 ENE 0,5 11,3 0,0
20-05-2020 14,4     23,1     31,3 16,9 37 69 97 1.022 1.024 1.026 ENE 0,5 11,3 0,0
19-05-2020 11,8     22,0     30,9 19,1 39 68 98 1.023 1.026 1.029 ENE 0,6 11,3 0,0
18-05-2020 12,1     20,6     27,8 15,7 46 73 98 1.027 1.029 1.031 ENE 0,8 16,1 0,0
17-05-2020 13,0     18,4     24,8 11,8 53 83 98 1.028 1.029 1.031 ENE 0,6 12,9 0,4
16-05-2020 13,2     15,7     20,3 7,1 74 92 97 1.023 1.025 1.028 SW 0,3 14,5 64,4 0,52 11,40
15-05-2020 10,2     16,3     22,3 12,1 55 81 96 1.019 1.021 1.024 ENE 0,5 12,9 0,4
14-05-2020 12,3     15,7     22,2 9,9 51 78 93 1.011 1.014 1.019 WSW 2,3 30,6 14,6 0,41 2,50
13-05-2020 15,2     19,9     26,8 11,6 39 61 94 1.013 1.014 1.016 WSW 2,9 27,4 0,0
12-05-2020 15,8     20,2     26,5 10,7 46 67 92 1.015 1.017 1.020 ENE 1,0 24,1 0,4
11-05-2020 17,2     22,1     28,3 11,1 33 51 66 1.016 1.017 1.020 WSW 6,3 30,6 0,0
10-05-2020 15,4     20,3     25,7 10,3 32 62 91 1.013 1.014 1.018 WSW 5,0 33,8 1,4 0,20
09-05-2020 14,2     19,8     26,2 12,0 62 82 96 1.017 1.020 1.024 ENE 1,0 17,7 0,0
08-05-2020 15,3     19,2     24,6 9,3 64 82 94 1.023 1.025 1.027 ENE 0,8 12,9 0,0
07-05-2020 14,2     20,3     27,1 12,9 46 77 97 1.026 1.027 1.028 ENE 0,6 14,5 0,0
06-05-2020 14,6     21,3     29,3 14,7 49 76 97 1.023 1.025 1.027 ENE 1,0 16,1 0,0
05-05-2020 14,4     22,2     30,8 16,4 41 74 98 1.021 1.022 1.024 E 0,5 11,3 0,2
04-05-2020 13,1     20,6     28,4 15,3 60 80 98 1.022 1.024 1.026 ENE 0,6 9,7 0,2
03-05-2020 13,9     22,6     30,3 16,4 40 67 92 1.024 1.026 1.028 ENE 1,0 14,5 0,0
02-05-2020 19,1     26,4     34,2 15,1 24 48 69 1.024 1.027 1.029 WSW 1,8 17,7 0,0
01-05-2020 17,3     23,8     30,8 13,5 36 50 65 1.024 1.026 1.028 WSW 4,7 27,4 0,0
30-04-2020 18,5     22,3     27,6 9,1 36 48 60 1.023 1.025 1.027 OSO 5,9 29,0 0,0
29-04-2020 13,2     20,9     27,4 14,2 33 46 68 1.023 1.025 1.028 WSW 3,5 24,1 0,0
28-04-2020 14,6     19,2     24,1 9,5 41 55 71 1.021 1.023 1.025 WSW 4,8 22,5 0,0
27-04-2020 11,6     18,1     26,7 15,1 45 75 98 1.018 1.020 1.022 WSW 2,3 25,7 0,0
Últims 13 mesos disponibles
04/2020 6,2 11,3 18,5 15,8 16,4 21,4 27,6 21,4 46 80 96 1.014 1.025 1.035 ENE 1,4 32,2 52,4
03/2020 3,8 9,5 16,9 14,2 11,2 19,9 28,3 24,5 43 74 96 1.016 1.026 1.036 ENE 2,3 56,3 139,0
02/2020 2,5 6,7 12,2 13,9 13,7 22,2 27,4 24,9 39 75 92 1.023 1.034 1.042 WSW 1,2 33,8 4,8
01/2020 -1,4 4,8 13,9 10,0 11,6 17,0 22,3 23,7 57 82 98 1.024 1.034 1.042 WSW 1,5 41,8 387,4
12/2019 1,5 8,1 19,7 13,0 13,1 18,8 25,7 24,2 51 75 94 1.011 1.028 1.042 WSW 2,5 57,9 321,2
11/2019 1,1 11,0 21,4 15,4 15,6 20,0 27,3 26,2 47 60 84 1.008 1.020 1.027 WSW 4,5 46,7 17,2
10/2019 7,9 13,5 21,1 19,3 15,9 26,4 34,5 26,6 52 75 89 1.017 1.025 1.031 WSW 1,1 38,6 48,6
09/2019 14,4 18,2 22,1 23,4 23,3 29,2 36,1 21,7 46 79 93 1.018 1.026 1.033 ENE 1,0 40,2 145,8
08/2019 16,4 20,3 25,6 26,8 29,4 34,1 42,2 25,8 50 72 84 1.018 1.024 1.028 ENE 1,0 25,7 27,2
07/2019 18,0 20,5 25,8 27,5 29,8 34,5 40,1 22,1 39 66 80 1.014 1.022 1.030 ENE 1,3 32,2 0,2
06/2019 10,6 15,0 20,8 23,2 23,7 30,7 38,1 27,5 36 65 78 1.017 1.024 1.030 ENE 1,1 38,6 0,0
05/2019 6,4 12,3 21,1 19,2 20,2 26,1 33,4 27,0 48 69 85 1.014 1.024 1.033 ENE 1,5 41,8 9,2
04/2019 5,6 10,1 13,9 15,3 13,8 21,0 30,6 25,0 50 72 97 1.008 1.022 1.034 WSW 2,5 37,0 307,8
Tots els anys disponibles
2019 -3,8 11,9 25,8 18,1 13,1 25,0 42,2 34 70 97 1.004 1.026 1.043 ENE 1,8 57,9 952,8
Temperatura (°C)
Humitat relativa (%)
Velocitat del vent i ràfega màxima (km/h)
Direcció del vent (°)
Pressió (hPa)
Precipitació (mm)
Nota sobre les dades: s'avisa a l'usuari de la provisionalitat i no oficialitat d'aquestes dades
Logo AVAMET blanc
Web allotjada a Sollutia
Llicència de Creative CommonsLa web d'AVAMET i els seus continguts estan subjectes a una llicència de
Reconeixement - No Comercial - Compartir igual
Últimes estacions:  Chera (Ajuntament soci), Benifaió (Inforatge), Altea - Com. Regants (Soci) - - -